MSC Marianna — H0AE — position and weather

sailwx.info

Track history (hours):
 
Tides and Currents Weather Stations Pressure Air Temp Water Temp Dewpoint Dewpoint Depression Visibility Wind Speed Wind Dir Waves Ship Positions

MSC Marianna

Last reported at 2018-Aug-13 12:59 UTC. Time now 2018-Aug-14 19:27 UTC.
Position N 37°56' W 008°51'.

Length 303 m; draft 13.8 m.

Type: Ship. MMSI: 563004504.

Date/timePositionNaut miles runAvg speedWind from/ knotsBaromVisibWave heightAir tempDewpointWater temp
2018-Aug-13 12:59N 37°56' W 008°51'0 1.0
2018-Aug-13 12:30N 37°55' W 008°50'2 3.5
2018-Aug-13 12:00N 37°54' W 008°50'612.9
2018-Aug-13 11:30N 37°48' W 008°53'1019.2
2018-Aug-13 11:00N 37°39' W 008°58'1019.1
2018-Aug-13 10:30N 37°30' W 009°04'1019.1
2018-Aug-13 09:59N 37°21' W 009°09'919.2
2018-Aug-13 09:30N 37°13' W 009°14'1019.3
2018-Aug-13 08:59N 37°04' W 009°19'1118.8
2018-Aug-13 08:25N 36°53' W 009°18'818.9
2018-Aug-13 07:58N 36°46' W 009°11'919.0
2018-Aug-13 07:30N 36°42' W 009°01'918.7
2018-Aug-13 07:00N 36°40' W 008°50'917.4
2018-Aug-13 06:29N 36°37' W 008°40'817.3
2018-Aug-13 06:00N 36°34' W 008°30'917.6
2018-Aug-13 05:30N 36°31' W 008°19'917.5
2018-Aug-13 04:58N 36°29' W 008°08'817.5
2018-Aug-13 04:30N 36°26' W 007°58'917.6
2018-Aug-13 04:00N 36°23' W 007°48'917.5
2018-Aug-13 03:30N 36°21' W 007°38'917.7
2018-Aug-13 03:00N 36°18' W 007°27'917.9
2018-Aug-13 02:30N 36°15' W 007°17'917.5
2018-Aug-13 02:00N 36°13' W 007°06'917.4
2018-Aug-13 01:30N 36°11' W 006°56'917.7
2018-Aug-13 01:00N 36°08' W 006°46'917.5
2018-Aug-13 00:28N 36°04' W 006°35'1018.1
2018-Aug-12 23:54N 36°01' W 006°23'3718.9
2018-Aug-12 21:57N 35°58' W 005°37'715.7
2018-Aug-12 21:30N 35°60' W 005°29'713.3
2018-Aug-12 21:00N 36°04' W 005°23'5 9.5
2018-Aug-12 20:29N 36°09' W 005°25'1 1.3
2018-Aug-12 19:55N 36°09' W 005°26'0 0.0
2018-Aug-12 19:28N 36°09' W 005°26'0 0.0
2018-Aug-12 18:58N 36°09' W 005°26'0 0.0
2018-Aug-12 18:28N 36°09' W 005°26'0 0.0
2018-Aug-12 17:58N 36°09' W 005°26'0 0.0
2018-Aug-12 17:28N 36°09' W 005°26'0 0.0
2018-Aug-12 16:52N 36°09' W 005°26'0 0.0
2018-Aug-12 16:28N 36°09' W 005°26'0 0.0
2018-Aug-12 15:58N 36°09' W 005°26'0 0.0
2018-Aug-12 15:28N 36°09' W 005°26'0 0.0
2018-Aug-12 14:55N 36°09' W 005°26'0 0.0
2018-Aug-12 14:28N 36°09' W 005°26'0 0.0
2018-Aug-12 10:04N 36°09' W 005°26'0 0.0
2018-Aug-12 08:44N 36°09' W 005°26'0 0.0
2018-Aug-12 06:59N 36°09' W 005°26'0 0.0
2018-Aug-12 06:29N 36°09' W 005°26'0 0.0
2018-Aug-12 06:00N 36°09' W 005°26'1 2.4
2018-Aug-12 05:30N 36°09' W 005°25'5 9.2
2018-Aug-12 05:00N 36°05' W 005°22'4 7.3
2018-Aug-12 04:30N 36°05' W 005°17'4 8.5
2018-Aug-12 04:00N 36°07' W 005°12'3 6.6
2018-Aug-12 03:29N 36°07' W 005°08'0 0.1
2018-Aug-12 02:59N 36°08' W 005°08'0 0.0
2018-Aug-12 02:29N 36°08' W 005°08'0 0.6
2018-Aug-12 01:59N 36°08' W 005°08'0 0.7
2018-Aug-12 01:20N 36°08' W 005°08'0 0.7
2018-Aug-12 00:56N 36°08' W 005°07'1 1.1
2018-Aug-12 00:26N 36°08' W 005°07'5 0.5
2018-Aug-11 14:30N 36°13' W 005°06'1 2.3
2018-Aug-11 13:52N 36°13' W 005°08'11 3.5
2018-Aug-11 10:40N 36°05' W 005°17'211.8
2018-Aug-11 10:30N 36°04' W 005°20'2 3.3
2018-Aug-11 09:55N 36°04' W 005°22'2 4.7
2018-Aug-11 09:30N 36°05' W 005°20'3 6.5
2018-Aug-11 09:00N 36°06' W 005°16'1 0.9
2018-Aug-11 07:51N 36°05' W 005°16'0 1.0
2018-Aug-11 07:30N 36°05' W 005°16'1 1.5
2018-Aug-11 06:54N 36°06' W 005°15'1 1.2
2018-Aug-11 06:27N 36°06' W 005°15'0 0.7
2018-Aug-11 06:00N 36°07' W 005°15'2 3.0
2018-Aug-11 05:27N 36°06' W 005°13'510.8
2018-Aug-11 05:00N 36°06' W 005°07'20610.7
2018-Aug-10 09:41N 37°13' W 001°04'916.3
2018-Aug-10 09:07N 37°19' W 000°55'217.7
2018-Aug-10 09:00N 37°21' W 000°53'917.8
2018-Aug-10 08:30N 37°26' W 000°44'917.7
2018-Aug-10 08:00N 37°32' W 000°36'917.0
2018-Aug-10 07:30N 37°39' W 000°30'917.2
2018-Aug-10 06:59N 37°46' W 000°24'917.9
2018-Aug-10 06:30N 37°54' W 000°18'918.3
2018-Aug-10 06:00N 38°01' W 000°12'85 3.7
2018-Aug-09 07:05N 39°26' W 000°20'0 0.0
2018-Aug-09 06:59N 39°26' W 000°20'0 0.0
2018-Aug-09 06:29N 39°26' W 000°20'0 0.0
2018-Aug-09 05:59N 39°26' W 000°20'0 0.0
2018-Aug-09 05:20N 39°26' W 000°20'0 0.0
2018-Aug-09 04:53N 39°26' W 000°20'0 0.0
2018-Aug-09 04:23N 39°26' W 000°20'0 0.0
2018-Aug-09 03:56N 39°26' W 000°20'0 0.0
2018-Aug-09 03:23N 39°26' W 000°20'0 0.0
2018-Aug-09 02:50N 39°26' W 000°20'0 0.0
2018-Aug-09 02:29N 39°26' W 000°20'0 0.0
2018-Aug-09 01:59N 39°26' W 000°20'0 0.0
2018-Aug-09 01:29N 39°26' W 000°20'0 0.0
2018-Aug-09 00:59N 39°26' W 000°20'0 0.0
2018-Aug-09 00:29N 39°26' W 000°20'0 0.0
2018-Aug-08 23:01N 39°26' W 000°20'0 0.1
2018-Aug-08 23:00N 39°26' W 000°20'0 0.2
2018-Aug-08 22:30N 39°26' W 000°20'3 6.9
2018-Aug-08 22:00N 39°25' W 000°15'4 8.3
2018-Aug-08 21:30N 39°25' W 000°10'14617.3
2018-Aug-08 13:06N 40°32' E 002°40'217.4
2018-Aug-08 12:58N 40°33' E 002°42'27419.4
2018-Aug-07 22:52N 42°45' E 008°03'1320.6
2018-Aug-07 22:15N 42°51' E 008°18'820.7
2018-Aug-07 21:52N 42°55' E 008°28'820.6
2018-Aug-07 21:29N 42°59' E 008°37'1020.3
2018-Aug-07 21:01N 43°04' E 008°49'1020.1
2018-Aug-07 20:31N 43°09' E 009°01'1020.1
2018-Aug-07 20:01N 43°14' E 009°13'1020.5
2018-Aug-07 19:31N 43°18' E 009°25'1020.5
2018-Aug-07 19:00N 43°23' E 009°38'1020.8
2018-Aug-07 18:31N 43°28' E 009°50'1020.6
2018-Aug-07 18:00N 43°30' E 010°04'917.1
2018-Aug-07 17:30N 43°32' E 010°16'3 5.5
2018-Aug-07 17:01N 43°34' E 010°18'0 0.6
2018-Aug-07 16:30N 43°34' E 010°18'0 0.0
2018-Aug-07 16:00N 43°34' E 010°18'0 0.0
2018-Aug-07 15:30N 43°34' E 010°18'0 0.0
2018-Aug-07 15:00N 43°34' E 010°18'0 0.0
2018-Aug-07 14:30N 43°34' E 010°18'0 0.0
2018-Aug-07 14:00N 43°34' E 010°18'0 0.0
2018-Aug-07 13:30N 43°34' E 010°18'0 0.0
2018-Aug-07 12:54N 43°34' E 010°18'0 0.0
2018-Aug-07 12:30N 43°34' E 010°18'0 0.0
2018-Aug-07 12:00N 43°34' E 010°18'0 0.0
2018-Aug-07 11:30N 43°34' E 010°18'0 0.0
2018-Aug-07 11:00N 43°34' E 010°18'0 0.0
2018-Aug-07 10:30N 43°34' E 010°18'0 0.0
2018-Aug-07 10:00N 43°34' E 010°18'0 0.0
2018-Aug-07 09:30N 43°34' E 010°18'0 0.0
2018-Aug-07 08:57N 43°34' E 010°18'0 0.0
2018-Aug-07 08:30N 43°34' E 010°18'0 0.0
2018-Aug-07 08:00N 43°34' E 010°18'0 0.0
2018-Aug-07 07:30N 43°34' E 010°18'0 0.0
2018-Aug-07 07:00N 43°34' E 010°18'0 0.0
2018-Aug-07 06:30N 43°34' E 010°18'0 0.0
2018-Aug-07 05:54N 43°34' E 010°18'0 0.0
2018-Aug-07 05:30N 43°34' E 010°18'0 0.0
2018-Aug-07 04:57N 43°34' E 010°18'0 0.0
2018-Aug-07 04:30N 43°34' E 010°18'0 0.0
2018-Aug-07 03:57N 43°34' E 010°18'0 0.0
2018-Aug-07 03:30N 43°34' E 010°18'0 0.0
2018-Aug-07 03:00N 43°34' E 010°18'0 0.0
2018-Aug-07 02:30N 43°34' E 010°18'0 0.0
2018-Aug-07 02:00N 43°34' E 010°18'0 0.0
2018-Aug-07 01:30N 43°34' E 010°18'0 0.0
2018-Aug-07 01:00N 43°34' E 010°18'0 0.0
2018-Aug-07 00:24N 43°34' E 010°18'0 0.0
2018-Aug-07 00:00N 43°34' E 010°18'0 0.0
2018-Aug-06 23:30N 43°34' E 010°18'0 0.0
2018-Aug-06 23:00N 43°34' E 010°18'0 0.0
2018-Aug-06 22:30N 43°34' E 010°18'0 0.0
2018-Aug-06 22:00N 43°34' E 010°18'0 0.0
2018-Aug-06 21:30N 43°34' E 010°18'0 0.0
2018-Aug-06 21:00N 43°34' E 010°18'0 0.0
2018-Aug-06 20:30N 43°34' E 010°18'0 0.0
2018-Aug-06 20:00N 43°34' E 010°18'0 0.0
2018-Aug-06 19:30N 43°34' E 010°18'0 0.0
2018-Aug-06 19:00N 43°34' E 010°18'0 0.0
2018-Aug-06 18:30N 43°34' E 010°18'0 0.0
2018-Aug-06 18:00N 43°34' E 010°18'0 0.0
2018-Aug-06 17:30N 43°34' E 010°18'0 0.0
2018-Aug-06 16:57N 43°34' E 010°18'0 0.0
2018-Aug-06 16:30N 43°34' E 010°18'0 0.0
2018-Aug-06 16:00N 43°34' E 010°18'0 0.0
2018-Aug-06 15:27N 43°34' E 010°18'0 0.0
2018-Aug-06 15:00N 43°34' E 010°18'0 0.0
2018-Aug-06 14:30N 43°34' E 010°18'0 0.0
2018-Aug-06 14:00N 43°34' E 010°18'0 0.0
2018-Aug-06 13:30N 43°34' E 010°18'0 0.0
2018-Aug-06 13:00N 43°34' E 010°18'0 0.0
2018-Aug-06 12:30N 43°34' E 010°18'0 0.0
2018-Aug-06 12:00N 43°34' E 010°18'0 0.0
2018-Aug-06 11:30N 43°34' E 010°18'0 0.0
2018-Aug-06 11:00N 43°34' E 010°18'0 0.0
2018-Aug-06 10:30N 43°34' E 010°18'0 0.0
2018-Aug-06 09:57N 43°34' E 010°18'0 0.0
2018-Aug-06 09:30N 43°34' E 010°18'0 0.0
2018-Aug-06 09:00N 43°34' E 010°18'0 0.0
2018-Aug-06 08:30N 43°34' E 010°18'0 0.0
2018-Aug-06 08:00N 43°34' E 010°18'0 0.0
2018-Aug-06 07:30N 43°34' E 010°18'0 0.0
2018-Aug-06 07:00N 43°34' E 010°18'0 0.0
2018-Aug-06 06:30N 43°34' E 010°18'0 0.0
2018-Aug-06 06:00N 43°34' E 010°18'0 0.0
2018-Aug-06 05:30N 43°34' E 010°18'0 0.5
2018-Aug-06 05:01N 43°34' E 010°19'3 5.2
2018-Aug-06 04:31N 43°32' E 010°17'1 2.4
2018-Aug-06 04:01N 43°31' E 010°15'3 6.5
2018-Aug-06 03:31N 43°29' E 010°12'713.2
2018-Aug-06 03:00N 43°24' E 010°06'714.5
2018-Aug-06 02:30N 43°19' E 009°58'714.6
2018-Aug-06 02:00N 43°15' E 009°51'714.7
2018-Aug-06 01:30N 43°10' E 009°43'713.1
2018-Aug-06 01:00N 43°04' E 009°38'816.1
2018-Aug-06 00:30N 42°56' E 009°41'815.2
2018-Aug-06 00:00N 42°49' E 009°44'815.1
2018-Aug-05 23:30N 42°42' E 009°47'1014.8
2018-Aug-05 22:50N 42°32' E 009°51'514.8
2018-Aug-05 22:29N 42°27' E 009°53'714.7
2018-Aug-05 22:00N 42°21' E 009°55'914.6
2018-Aug-05 21:25N 42°12' E 009°58'614.5
2018-Aug-05 21:00N 42°09' E 010°05'814.6
2018-Aug-05 20:26N 42°04' E 010°14'714.6
2018-Aug-05 19:59N 42°00' E 010°22'814.5
2018-Aug-05 19:27N 41°56' E 010°30'614.3
2018-Aug-05 19:00N 41°53' E 010°37'714.2
2018-Aug-05 18:30N 41°49' E 010°46'714.3
2018-Aug-05 18:00N 41°45' E 010°54'714.3
2018-Aug-05 17:30N 41°41' E 011°02'714.3
2018-Aug-05 17:00N 41°37' E 011°10'714.0
2018-Aug-05 16:30N 41°33' E 011°18'713.9
2018-Aug-05 16:00N 41°30' E 011°25'714.0
2018-Aug-05 15:30N 41°26' E 011°33'2414.7
2018-Aug-05 13:54N 41°13' E 011°59'6515.2
2018-Aug-05 09:37N 40°37' E 013°11'315.4
2018-Aug-05 09:25N 40°35' E 013°15'614.8
2018-Aug-05 09:00N 40°34' E 013°23'715.3
2018-Aug-05 08:30N 40°34' E 013°33'815.2
2018-Aug-05 08:00N 40°34' E 013°43'815.2
2018-Aug-05 07:30N 40°35' E 013°53'815.3
2018-Aug-05 07:00N 40°39' E 014°02'815.6
2018-Aug-05 06:30N 40°43' E 014°10'815.5
2018-Aug-05 06:00N 40°48' E 014°18'2 3.9
2018-Aug-05 05:27N 40°50' E 014°17'0 0.0
2018-Aug-05 05:00N 40°50' E 014°17'0 0.0
2018-Aug-05 04:30N 40°50' E 014°17'0 0.0
2018-Aug-05 04:00N 40°50' E 014°17'0 0.0
2018-Aug-05 03:30N 40°50' E 014°17'0 0.0
2018-Aug-05 03:00N 40°50' E 014°17'0 0.0
2018-Aug-05 02:27N 40°50' E 014°17'0 0.0
2018-Aug-05 02:00N 40°50' E 014°17'0 0.0
2018-Aug-05 01:30N 40°50' E 014°17'0 0.0
2018-Aug-05 01:00N 40°50' E 014°17'0 0.0
2018-Aug-05 00:30N 40°50' E 014°17'0 0.0
2018-Aug-05 00:00N 40°50' E 014°17'0 0.0
2018-Aug-04 23:30N 40°50' E 014°17'0 0.0
2018-Aug-04 23:00N 40°50' E 014°17'0 0.0
2018-Aug-04 22:27N 40°50' E 014°17'0 0.0
2018-Aug-04 22:00N 40°50' E 014°17'0 0.0
2018-Aug-04 21:15N 40°50' E 014°17'0 0.0
2018-Aug-04 20:47N 40°50' E 014°17'0 0.0
2018-Aug-04 20:21N 40°50' E 014°17'0 0.0
2018-Aug-04 20:00N 40°50' E 014°17'0 0.0
2018-Aug-04 19:21N 40°50' E 014°17'0 0.1
2018-Aug-04 19:00N 40°50' E 014°17'0 0.0
2018-Aug-04 18:21N 40°50' E 014°17'0 0.0
2018-Aug-04 17:54N 40°50' E 014°17'0 0.0
2018-Aug-04 17:18N 40°50' E 014°17'0 0.0
2018-Aug-04 17:00N 40°50' E 014°17'0 0.0
2018-Aug-04 16:29N 40°50' E 014°17'0 0.0
2018-Aug-04 15:57N 40°50' E 014°17'0 0.0
2018-Aug-04 15:29N 40°50' E 014°17'0 0.0
2018-Aug-04 15:00N 40°50' E 014°17'0 0.0
2018-Aug-04 14:30N 40°50' E 014°17'0 0.0
2018-Aug-04 14:00N 40°50' E 014°17'0 0.0
2018-Aug-04 13:30N 40°50' E 014°17'0 0.0
2018-Aug-04 12:53N 40°50' E 014°17'0 0.0
2018-Aug-04 12:30N 40°50' E 014°17'0 0.0
2018-Aug-04 12:00N 40°50' E 014°17'0 0.0
2018-Aug-04 11:30N 40°50' E 014°17'0 0.0
2018-Aug-04 11:00N 40°50' E 014°17'0 0.0
2018-Aug-04 10:30N 40°50' E 014°17'0 0.0
2018-Aug-04 10:00N 40°50' E 014°17'0 0.0
2018-Aug-04 09:29N 40°50' E 014°17'0 0.0
2018-Aug-04 08:59N 40°50' E 014°17'0 0.0
2018-Aug-04 08:29N 40°50' E 014°17'0 0.0
2018-Aug-04 07:57N 40°50' E 014°17'0 0.0
2018-Aug-04 07:29N 40°50' E 014°17'0 0.0
2018-Aug-04 07:00N 40°50' E 014°17'0 0.0
2018-Aug-04 06:29N 40°50' E 014°17'0 0.0
2018-Aug-04 05:59N 40°50' E 014°17'0 0.0
2018-Aug-04 05:24N 40°50' E 014°17'0 0.0
2018-Aug-04 04:59N 40°50' E 014°17'0 0.0
2018-Aug-04 04:30N 40°50' E 014°17'0 0.0
2018-Aug-04 03:56N 40°50' E 014°17'0 0.0
2018-Aug-04 03:26N 40°50' E 014°17'0 0.0
2018-Aug-04 02:59N 40°50' E 014°17'0 0.0
2018-Aug-04 02:29N 40°50' E 014°17'0 0.0
2018-Aug-04 01:59N 40°50' E 014°17'0 0.0
2018-Aug-04 01:29N 40°50' E 014°17'0 0.0
2018-Aug-04 00:59N 40°50' E 014°17'0 0.0
2018-Aug-04 00:29N 40°50' E 014°17'0 0.0
2018-Aug-03 23:59N 40°50' E 014°17'0 0.0
2018-Aug-03 23:29N 40°50' E 014°17'0 0.0
2018-Aug-03 22:59N 40°50' E 014°17'0 0.0
2018-Aug-03 22:29N 40°50' E 014°17'0 0.0
2018-Aug-03 22:00N 40°50' E 014°17'0 0.0
2018-Aug-03 21:30N 40°50' E 014°17'0 0.0
2018-Aug-03 20:59N 40°50' E 014°17'0 0.0
2018-Aug-03 20:29N 40°50' E 014°17'0 0.0
2018-Aug-03 19:59N 40°50' E 014°17'0 0.0
2018-Aug-03 19:29N 40°50' E 014°17'0 0.0
2018-Aug-03 18:59N 40°50' E 014°17'0 0.0
2018-Aug-03 18:26N 40°50' E 014°17'0 0.0
2018-Aug-03 18:00N 40°50' E 014°17'0 0.0
2018-Aug-03 17:31N 40°50' E 014°17'0 0.0
2018-Aug-03 17:00N 40°50' E 014°17'0 0.0
2018-Aug-03 16:30N 40°50' E 014°17'0 0.0
2018-Aug-03 16:00N 40°50' E 014°17'0 0.1
2018-Aug-03 15:30N 40°50' E 014°17'2 3.4
2018-Aug-03 15:01N 40°48' E 014°17'2 3.4
2018-Aug-03 14:30N 40°47' E 014°18'1 1.8
2018-Aug-03 14:00N 40°48' E 014°17'1 2.7
2018-Aug-03 13:31N 40°46' E 014°17'0 0.6
2018-Aug-03 13:00N 40°46' E 014°17'  
Track history (hours):
 
Tides and Currents Weather Stations Pressure Air Temp Water Temp Dewpoint Dewpoint Depression Visibility Wind Speed Wind Dir Waves Ship Positions

MSC Marianna

Last reported at 2018-Aug-13 12:59 UTC. Time now 2018-Aug-14 19:27 UTC.
Position N 37°56' W 008°51'.

Length 303 m; draft 13.8 m.

Type: Ship. MMSI: 563004504.

Date/timePositionNaut miles runAvg speedWind from/ knotsBaromVisibWave heightAir tempDewpointWater temp
2018-Aug-13 12:59N 37°56' W 008°51'0 1.0
2018-Aug-13 12:30N 37°55' W 008°50'2 3.5
2018-Aug-13 12:00N 37°54' W 008°50'612.9
2018-Aug-13 11:30N 37°48' W 008°53'1019.2
2018-Aug-13 11:00N 37°39' W 008°58'1019.1
2018-Aug-13 10:30N 37°30' W 009°04'1019.1
2018-Aug-13 09:59N 37°21' W 009°09'919.2
2018-Aug-13 09:30N 37°13' W 009°14'1019.3
2018-Aug-13 08:59N 37°04' W 009°19'1118.8
2018-Aug-13 08:25N 36°53' W 009°18'818.9
2018-Aug-13 07:58N 36°46' W 009°11'919.0
2018-Aug-13 07:30N 36°42' W 009°01'918.7
2018-Aug-13 07:00N 36°40' W 008°50'917.4
2018-Aug-13 06:29N 36°37' W 008°40'817.3
2018-Aug-13 06:00N 36°34' W 008°30'917.6
2018-Aug-13 05:30N 36°31' W 008°19'917.5
2018-Aug-13 04:58N 36°29' W 008°08'817.5
2018-Aug-13 04:30N 36°26' W 007°58'917.6
2018-Aug-13 04:00N 36°23' W 007°48'917.5
2018-Aug-13 03:30N 36°21' W 007°38'917.7
2018-Aug-13 03:00N 36°18' W 007°27'917.9
2018-Aug-13 02:30N 36°15' W 007°17'917.5
2018-Aug-13 02:00N 36°13' W 007°06'917.4
2018-Aug-13 01:30N 36°11' W 006°56'917.7
2018-Aug-13 01:00N 36°08' W 006°46'917.5
2018-Aug-13 00:28N 36°04' W 006°35'1018.1
2018-Aug-12 23:54N 36°01' W 006°23'3718.9
2018-Aug-12 21:57N 35°58' W 005°37'715.7
2018-Aug-12 21:30N 35°60' W 005°29'713.3
2018-Aug-12 21:00N 36°04' W 005°23'5 9.5
2018-Aug-12 20:29N 36°09' W 005°25'1 1.3
2018-Aug-12 19:55N 36°09' W 005°26'0 0.0
2018-Aug-12 19:28N 36°09' W 005°26'0 0.0
2018-Aug-12 18:58N 36°09' W 005°26'0 0.0
2018-Aug-12 18:28N 36°09' W 005°26'0 0.0
2018-Aug-12 17:58N 36°09' W 005°26'0 0.0
2018-Aug-12 17:28N 36°09' W 005°26'0 0.0
2018-Aug-12 16:52N 36°09' W 005°26'0 0.0
2018-Aug-12 16:28N 36°09' W 005°26'0 0.0
2018-Aug-12 15:58N 36°09' W 005°26'0 0.0
2018-Aug-12 15:28N 36°09' W 005°26'0 0.0
2018-Aug-12 14:55N 36°09' W 005°26'0 0.0
2018-Aug-12 14:28N 36°09' W 005°26'0 0.0
2018-Aug-12 10:04N 36°09' W 005°26'0 0.0
2018-Aug-12 08:44N 36°09' W 005°26'0 0.0
2018-Aug-12 06:59N 36°09' W 005°26'0 0.0
2018-Aug-12 06:29N 36°09' W 005°26'0 0.0
2018-Aug-12 06:00N 36°09' W 005°26'1 2.4
2018-Aug-12 05:30N 36°09' W 005°25'5 9.2
2018-Aug-12 05:00N 36°05' W 005°22'4 7.3
2018-Aug-12 04:30N 36°05' W 005°17'4 8.5
2018-Aug-12 04:00N 36°07' W 005°12'3 6.6
2018-Aug-12 03:29N 36°07' W 005°08'0 0.1
2018-Aug-12 02:59N 36°08' W 005°08'0 0.0
2018-Aug-12 02:29N 36°08' W 005°08'0 0.6
2018-Aug-12 01:59N 36°08' W 005°08'0 0.7
2018-Aug-12 01:20N 36°08' W 005°08'0 0.7
2018-Aug-12 00:56N 36°08' W 005°07'1 1.1
2018-Aug-12 00:26N 36°08' W 005°07'5 0.5
2018-Aug-11 14:30N 36°13' W 005°06'1 2.3
2018-Aug-11 13:52N 36°13' W 005°08'11 3.5
2018-Aug-11 10:40N 36°05' W 005°17'211.8
2018-Aug-11 10:30N 36°04' W 005°20'2 3.3
2018-Aug-11 09:55N 36°04' W 005°22'2 4.7
2018-Aug-11 09:30N 36°05' W 005°20'3 6.5
2018-Aug-11 09:00N 36°06' W 005°16'1 0.9
2018-Aug-11 07:51N 36°05' W 005°16'0 1.0
2018-Aug-11 07:30N 36°05' W 005°16'1 1.5
2018-Aug-11 06:54N 36°06' W 005°15'1 1.2
2018-Aug-11 06:27N 36°06' W 005°15'0 0.7
2018-Aug-11 06:00N 36°07' W 005°15'2 3.0
2018-Aug-11 05:27N 36°06' W 005°13'510.8
2018-Aug-11 05:00N 36°06' W 005°07'20610.7
2018-Aug-10 09:41N 37°13' W 001°04'916.3
2018-Aug-10 09:07N 37°19' W 000°55'217.7
2018-Aug-10 09:00N 37°21' W 000°53'917.8
2018-Aug-10 08:30N 37°26' W 000°44'917.7
2018-Aug-10 08:00N 37°32' W 000°36'917.0
2018-Aug-10 07:30N 37°39' W 000°30'917.2
2018-Aug-10 06:59N 37°46' W 000°24'917.9
2018-Aug-10 06:30N 37°54' W 000°18'918.3
2018-Aug-10 06:00N 38°01' W 000°12'85 3.7
2018-Aug-09 07:05N 39°26' W 000°20'0 0.0
2018-Aug-09 06:59N 39°26' W 000°20'0 0.0
2018-Aug-09 06:29N 39°26' W 000°20'0 0.0
2018-Aug-09 05:59N 39°26' W 000°20'0 0.0
2018-Aug-09 05:20N 39°26' W 000°20'0 0.0
2018-Aug-09 04:53N 39°26' W 000°20'0 0.0
2018-Aug-09 04:23N 39°26' W 000°20'0 0.0
2018-Aug-09 03:56N 39°26' W 000°20'0 0.0
2018-Aug-09 03:23N 39°26' W 000°20'0 0.0
2018-Aug-09 02:50N 39°26' W 000°20'0 0.0
2018-Aug-09 02:29N 39°26' W 000°20'0 0.0
2018-Aug-09 01:59N 39°26' W 000°20'0 0.0
2018-Aug-09 01:29N 39°26' W 000°20'0 0.0
2018-Aug-09 00:59N 39°26' W 000°20'0 0.0
2018-Aug-09 00:29N 39°26' W 000°20'0 0.0
2018-Aug-08 23:01N 39°26' W 000°20'0 0.1
2018-Aug-08 23:00N 39°26' W 000°20'0 0.2
2018-Aug-08 22:30N 39°26' W 000°20'3 6.9
2018-Aug-08 22:00N 39°25' W 000°15'4 8.3
2018-Aug-08 21:30N 39°25' W 000°10'14617.3
2018-Aug-08 13:06N 40°32' E 002°40'217.4
2018-Aug-08 12:58N 40°33' E 002°42'27419.4
2018-Aug-07 22:52N 42°45' E 008°03'1320.6
2018-Aug-07 22:15N 42°51' E 008°18'820.7
2018-Aug-07 21:52N 42°55' E 008°28'820.6
2018-Aug-07 21:29N 42°59' E 008°37'1020.3
2018-Aug-07 21:01N 43°04' E 008°49'1020.1
2018-Aug-07 20:31N 43°09' E 009°01'1020.1
2018-Aug-07 20:01N 43°14' E 009°13'1020.5
2018-Aug-07 19:31N 43°18' E 009°25'1020.5
2018-Aug-07 19:00N 43°23' E 009°38'1020.8
2018-Aug-07 18:31N 43°28' E 009°50'1020.6
2018-Aug-07 18:00N 43°30' E 010°04'917.1
2018-Aug-07 17:30N 43°32' E 010°16'3 5.5
2018-Aug-07 17:01N 43°34' E 010°18'0 0.6
2018-Aug-07 16:30N 43°34' E 010°18'0 0.0
2018-Aug-07 16:00N 43°34' E 010°18'0 0.0
2018-Aug-07 15:30N 43°34' E 010°18'0 0.0
2018-Aug-07 15:00N 43°34' E 010°18'0 0.0
2018-Aug-07 14:30N 43°34' E 010°18'0 0.0
2018-Aug-07 14:00N 43°34' E 010°18'0 0.0
2018-Aug-07 13:30N 43°34' E 010°18'0 0.0
2018-Aug-07 12:54N 43°34' E 010°18'0 0.0
2018-Aug-07 12:30N 43°34' E 010°18'0 0.0
2018-Aug-07 12:00N 43°34' E 010°18'0 0.0
2018-Aug-07 11:30N 43°34' E 010°18'0 0.0
2018-Aug-07 11:00N 43°34' E 010°18'0 0.0
2018-Aug-07 10:30N 43°34' E 010°18'0 0.0
2018-Aug-07 10:00N 43°34' E 010°18'0 0.0
2018-Aug-07 09:30N 43°34' E 010°18'0 0.0
2018-Aug-07 08:57N 43°34' E 010°18'0 0.0
2018-Aug-07 08:30N 43°34' E 010°18'0 0.0
2018-Aug-07 08:00N 43°34' E 010°18'0 0.0
2018-Aug-07 07:30N 43°34' E 010°18'0 0.0
2018-Aug-07 07:00N 43°34' E 010°18'0 0.0
2018-Aug-07 06:30N 43°34' E 010°18'0 0.0
2018-Aug-07 05:54N 43°34' E 010°18'0 0.0
2018-Aug-07 05:30N 43°34' E 010°18'0 0.0
2018-Aug-07 04:57N 43°34' E 010°18'0 0.0
2018-Aug-07 04:30N 43°34' E 010°18'0 0.0
2018-Aug-07 03:57N 43°34' E 010°18'0 0.0
2018-Aug-07 03:30N 43°34' E 010°18'0 0.0
2018-Aug-07 03:00N 43°34' E 010°18'0 0.0
2018-Aug-07 02:30N 43°34' E 010°18'0 0.0
2018-Aug-07 02:00N 43°34' E 010°18'0 0.0
2018-Aug-07 01:30N 43°34' E 010°18'0 0.0
2018-Aug-07 01:00N 43°34' E 010°18'0 0.0
2018-Aug-07 00:24N 43°34' E 010°18'0 0.0
2018-Aug-07 00:00N 43°34' E 010°18'0 0.0
2018-Aug-06 23:30N 43°34' E 010°18'0 0.0
2018-Aug-06 23:00N 43°34' E 010°18'0 0.0
2018-Aug-06 22:30N 43°34' E 010°18'0 0.0
2018-Aug-06 22:00N 43°34' E 010°18'0 0.0
2018-Aug-06 21:30N 43°34' E 010°18'0 0.0
2018-Aug-06 21:00N 43°34' E 010°18'0 0.0
2018-Aug-06 20:30N 43°34' E 010°18'0 0.0
2018-Aug-06 20:00N 43°34' E 010°18'0 0.0
2018-Aug-06 19:30N 43°34' E 010°18'0 0.0
2018-Aug-06 19:00N 43°34' E 010°18'0 0.0
2018-Aug-06 18:30N 43°34' E 010°18'0 0.0
2018-Aug-06 18:00N 43°34' E 010°18'0 0.0
2018-Aug-06 17:30N 43°34' E 010°18'0 0.0
2018-Aug-06 16:57N 43°34' E 010°18'0 0.0
2018-Aug-06 16:30N 43°34' E 010°18'0 0.0
2018-Aug-06 16:00N 43°34' E 010°18'0 0.0
2018-Aug-06 15:27N 43°34' E 010°18'0 0.0
2018-Aug-06 15:00N 43°34' E 010°18'0 0.0
2018-Aug-06 14:30N 43°34' E 010°18'0 0.0
2018-Aug-06 14:00N 43°34' E 010°18'0 0.0
2018-Aug-06 13:30N 43°34' E 010°18'0 0.0
2018-Aug-06 13:00N 43°34' E 010°18'0 0.0
2018-Aug-06 12:30N 43°34' E 010°18'0 0.0
2018-Aug-06 12:00N 43°34' E 010°18'0 0.0
2018-Aug-06 11:30N 43°34' E 010°18'0 0.0
2018-Aug-06 11:00N 43°34' E 010°18'0 0.0
2018-Aug-06 10:30N 43°34' E 010°18'0 0.0
2018-Aug-06 09:57N 43°34' E 010°18'0 0.0
2018-Aug-06 09:30N 43°34' E 010°18'0 0.0
2018-Aug-06 09:00N 43°34' E 010°18'0 0.0
2018-Aug-06 08:30N 43°34' E 010°18'0 0.0
2018-Aug-06 08:00N 43°34' E 010°18'0 0.0
2018-Aug-06 07:30N 43°34' E 010°18'0 0.0
2018-Aug-06 07:00N 43°34' E 010°18'0 0.0
2018-Aug-06 06:30N 43°34' E 010°18'0 0.0
2018-Aug-06 06:00N 43°34' E 010°18'0 0.0
2018-Aug-06 05:30N 43°34' E 010°18'0 0.5
2018-Aug-06 05:01N 43°34' E 010°19'3 5.2
2018-Aug-06 04:31N 43°32' E 010°17'1 2.4
2018-Aug-06 04:01N 43°31' E 010°15'3 6.5
2018-Aug-06 03:31N 43°29' E 010°12'713.2
2018-Aug-06 03:00N 43°24' E 010°06'714.5
2018-Aug-06 02:30N 43°19' E 009°58'714.6
2018-Aug-06 02:00N 43°15' E 009°51'714.7
2018-Aug-06 01:30N 43°10' E 009°43'713.1
2018-Aug-06 01:00N 43°04' E 009°38'816.1
2018-Aug-06 00:30N 42°56' E 009°41'815.2
2018-Aug-06 00:00N 42°49' E 009°44'815.1
2018-Aug-05 23:30N 42°42' E 009°47'1014.8
2018-Aug-05 22:50N 42°32' E 009°51'514.8
2018-Aug-05 22:29N 42°27' E 009°53'714.7
2018-Aug-05 22:00N 42°21' E 009°55'914.6
2018-Aug-05 21:25N 42°12' E 009°58'614.5
2018-Aug-05 21:00N 42°09' E 010°05'814.6
2018-Aug-05 20:26N 42°04' E 010°14'714.6
2018-Aug-05 19:59N 42°00' E 010°22'814.5
2018-Aug-05 19:27N 41°56' E 010°30'614.3
2018-Aug-05 19:00N 41°53' E 010°37'714.2
2018-Aug-05 18:30N 41°49' E 010°46'714.3
2018-Aug-05 18:00N 41°45' E 010°54'714.3
2018-Aug-05 17:30N 41°41' E 011°02'714.3
2018-Aug-05 17:00N 41°37' E 011°10'714.0
2018-Aug-05 16:30N 41°33' E 011°18'713.9
2018-Aug-05 16:00N 41°30' E 011°25'714.0
2018-Aug-05 15:30N 41°26' E 011°33'2414.7
2018-Aug-05 13:54N 41°13' E 011°59'6515.2
2018-Aug-05 09:37N 40°37' E 013°11'315.4
2018-Aug-05 09:25N 40°35' E 013°15'614.8
2018-Aug-05 09:00N 40°34' E 013°23'715.3
2018-Aug-05 08:30N 40°34' E 013°33'815.2
2018-Aug-05 08:00N 40°34' E 013°43'815.2
2018-Aug-05 07:30N 40°35' E 013°53'815.3
2018-Aug-05 07:00N 40°39' E 014°02'815.6
2018-Aug-05 06:30N 40°43' E 014°10'815.5
2018-Aug-05 06:00N 40°48' E 014°18'2 3.9
2018-Aug-05 05:27N 40°50' E 014°17'0 0.0
2018-Aug-05 05:00N 40°50' E 014°17'0 0.0
2018-Aug-05 04:30N 40°50' E 014°17'0 0.0
2018-Aug-05 04:00N 40°50' E 014°17'0 0.0
2018-Aug-05 03:30N 40°50' E 014°17'0 0.0
2018-Aug-05 03:00N 40°50' E 014°17'0 0.0
2018-Aug-05 02:27N 40°50' E 014°17'0 0.0
2018-Aug-05 02:00N 40°50' E 014°17'0 0.0
2018-Aug-05 01:30N 40°50' E 014°17'0 0.0
2018-Aug-05 01:00N 40°50' E 014°17'0 0.0
2018-Aug-05 00:30N 40°50' E 014°17'0 0.0
2018-Aug-05 00:00N 40°50' E 014°17'0 0.0
2018-Aug-04 23:30N 40°50' E 014°17'0 0.0
2018-Aug-04 23:00N 40°50' E 014°17'0 0.0
2018-Aug-04 22:27N 40°50' E 014°17'0 0.0
2018-Aug-04 22:00N 40°50' E 014°17'0 0.0
2018-Aug-04 21:15N 40°50' E 014°17'0 0.0
2018-Aug-04 20:47N 40°50' E 014°17'0 0.0
2018-Aug-04 20:21N 40°50' E 014°17'0 0.0
2018-Aug-04 20:00N 40°50' E 014°17'0 0.0
2018-Aug-04 19:21N 40°50' E 014°17'0 0.1
2018-Aug-04 19:00N 40°50' E 014°17'0 0.0
2018-Aug-04 18:21N 40°50' E 014°17'0 0.0
2018-Aug-04 17:54N 40°50' E 014°17'0 0.0
2018-Aug-04 17:18N 40°50' E 014°17'0 0.0
2018-Aug-04 17:00N 40°50' E 014°17'0 0.0
2018-Aug-04 16:29N 40°50' E 014°17'0 0.0
2018-Aug-04 15:57N 40°50' E 014°17'0 0.0
2018-Aug-04 15:29N 40°50' E 014°17'0 0.0
2018-Aug-04 15:00N 40°50' E 014°17'0 0.0
2018-Aug-04 14:30N 40°50' E 014°17'0 0.0
2018-Aug-04 14:00N 40°50' E 014°17'0 0.0
2018-Aug-04 13:30N 40°50' E 014°17'0 0.0
2018-Aug-04 12:53N 40°50' E 014°17'0 0.0
2018-Aug-04 12:30N 40°50' E 014°17'0 0.0
2018-Aug-04 12:00N 40°50' E 014°17'0 0.0
2018-Aug-04 11:30N 40°50' E 014°17'0 0.0
2018-Aug-04 11:00N 40°50' E 014°17'0 0.0
2018-Aug-04 10:30N 40°50' E 014°17'0 0.0
2018-Aug-04 10:00N 40°50' E 014°17'0 0.0
2018-Aug-04 09:29N 40°50' E 014°17'0 0.0
2018-Aug-04 08:59N 40°50' E 014°17'0 0.0
2018-Aug-04 08:29N 40°50' E 014°17'0 0.0
2018-Aug-04 07:57N 40°50' E 014°17'0 0.0
2018-Aug-04 07:29N 40°50' E 014°17'0 0.0
2018-Aug-04 07:00N 40°50' E 014°17'0 0.0
2018-Aug-04 06:29N 40°50' E 014°17'0 0.0
2018-Aug-04 05:59N 40°50' E 014°17'0 0.0
2018-Aug-04 05:24N 40°50' E 014°17'0 0.0
2018-Aug-04 04:59N 40°50' E 014°17'0 0.0
2018-Aug-04 04:30N 40°50' E 014°17'0 0.0
2018-Aug-04 03:56N 40°50' E 014°17'0 0.0
2018-Aug-04 03:26N 40°50' E 014°17'0 0.0
2018-Aug-04 02:59N 40°50' E 014°17'0 0.0
2018-Aug-04 02:29N 40°50' E 014°17'0 0.0
2018-Aug-04 01:59N 40°50' E 014°17'0 0.0
2018-Aug-04 01:29N 40°50' E 014°17'0 0.0
2018-Aug-04 00:59N 40°50' E 014°17'0 0.0
2018-Aug-04 00:29N 40°50' E 014°17'0 0.0
2018-Aug-03 23:59N 40°50' E 014°17'0 0.0
2018-Aug-03 23:29N 40°50' E 014°17'0 0.0
2018-Aug-03 22:59N 40°50' E 014°17'0 0.0
2018-Aug-03 22:29N 40°50' E 014°17'0 0.0
2018-Aug-03 22:00N 40°50' E 014°17'0 0.0
2018-Aug-03 21:30N 40°50' E 014°17'0 0.0
2018-Aug-03 20:59N 40°50' E 014°17'0 0.0
2018-Aug-03 20:29N 40°50' E 014°17'0 0.0
2018-Aug-03 19:59N 40°50' E 014°17'0 0.0
2018-Aug-03 19:29N 40°50' E 014°17'0 0.0
2018-Aug-03 18:59N 40°50' E 014°17'0 0.0
2018-Aug-03 18:26N 40°50' E 014°17'0 0.0
2018-Aug-03 18:00N 40°50' E 014°17'0 0.0
2018-Aug-03 17:31N 40°50' E 014°17'0 0.0
2018-Aug-03 17:00N 40°50' E 014°17'0 0.0
2018-Aug-03 16:30N 40°50' E 014°17'0 0.0
2018-Aug-03 16:00N 40°50' E 014°17'0 0.1
2018-Aug-03 15:30N 40°50' E 014°17'2 3.4
2018-Aug-03 15:01N 40°48' E 014°17'2 3.4
2018-Aug-03 14:30N 40°47' E 014°18'1 1.8
2018-Aug-03 14:00N 40°48' E 014°17'1 2.7
2018-Aug-03 13:31N 40°46' E 014°17'0 0.6
2018-Aug-03 13:00N 40°46' E 014°17'  

Dump ship's entire track history